sensor_id;sensor_type;location;lat;lon;timestamp;P1;P2;P0
73414;PMS5003;61633;53.742;-2.990;2022-08-11T00:00:39;8;7;
73414;PMS5003;61633;53.742;-2.990;2022-08-11T00:03:05;7;7;
73414;PMS5003;61633;53.742;-2.990;2022-08-11T00:05:30;7;6;
73414;PMS5003;61633;53.742;-2.990;2022-08-11T00:07:55;6;6;
73414;PMS5003;61633;53.742;-2.990;2022-08-11T00:10:21;8;8;
73414;PMS5003;61633;53.742;-2.990;2022-08-11T00:12:49;7;7;
73414;PMS5003;61633;53.742;-2.990;2022-08-11T00:15:11;7;7;
73414;PMS5003;61633;53.742;-2.990;2022-08-11T00:17:37;9;6;
73414;PMS5003;61633;53.742;-2.990;2022-08-11T00:20:04;9;8;
73414;PMS5003;61633;53.742;-2.990;2022-08-11T00:22:28;11;11;
73414;PMS5003;61633;53.742;-2.990;2022-08-11T00:24:53;12;10;
73414;PMS5003;61633;53.742;-2.990;2022-08-11T00:27:19;12;12;
73414;PMS5003;61633;53.742;-2.990;2022-08-11T00:32:12;12;11;
73414;PMS5003;61633;53.742;-2.990;2022-08-11T00:34:36;15;13;
73414;PMS5003;61633;53.742;-2.990;2022-08-11T00:37:03;10;10;
73414;PMS5003;61633;53.742;-2.990;2022-08-11T00:39:27;14;12;
73414;PMS5003;61633;53.742;-2.990;2022-08-11T00:41:57;12;12;
73414;PMS5003;61633;53.742;-2.990;2022-08-11T00:44:22;11;10;
73414;PMS5003;61633;53.742;-2.990;2022-08-11T00:46:48;11;11;
73414;PMS5003;61633;53.742;-2.990;2022-08-11T00:49:12;11;11;
73414;PMS5003;61633;53.742;-2.990;2022-08-11T00:51:39;9;8;
73414;PMS5003;61633;53.742;-2.990;2022-08-11T00:54:02;12;11;
73414;PMS5003;61633;53.742;-2.990;2022-08-11T00:56:35;9;9;
73414;PMS5003;61633;53.742;-2.990;2022-08-11T01:01:19;11;10;
73414;PMS5003;61633;53.742;-2.990;2022-08-11T01:11:02;11;10;
73414;PMS5003;61633;53.742;-2.990;2022-08-11T01:16:00;12;11;
73414;PMS5003;61633;53.742;-2.990;2022-08-11T01:23:18;9;9;
73414;PMS5003;61633;53.742;-2.990;2022-08-11T01:35:20;10;9;
73414;PMS5003;61633;53.742;-2.990;2022-08-11T01:45:05;12;11;
73414;PMS5003;61633;53.742;-2.990;2022-08-11T01:47:31;14;13;
73414;PMS5003;61633;53.742;-2.990;2022-08-11T01:49:47;12;11;
73414;PMS5003;61633;53.742;-2.990;2022-08-11T01:52:13;11;11;
73414;PMS5003;61633;53.742;-2.990;2022-08-11T01:54:39;14;13;
73414;PMS5003;61633;53.742;-2.990;2022-08-11T01:57:06;12;12;
73414;PMS5003;61633;53.742;-2.990;2022-08-11T01:59:27;14;13;
73414;PMS5003;61633;53.742;-2.990;2022-08-11T02:02:02;12;10;
73414;PMS5003;61633;53.742;-2.990;2022-08-11T02:04:19;12;11;
73414;PMS5003;61633;53.742;-2.990;2022-08-11T02:06:44;13;12;
73414;PMS5003;61633;53.742;-2.990;2022-08-11T02:09:10;13;11;
73414;PMS5003;61633;53.742;-2.990;2022-08-11T02:11:34;13;13;
73414;PMS5003;61633;53.742;-2.990;2022-08-11T02:14:02;12;12;
73414;PMS5003;61633;53.742;-2.990;2022-08-11T02:16:28;13;13;
73414;PMS5003;61633;53.742;-2.990;2022-08-11T02:18:51;14;14;
73414;PMS5003;61633;53.742;-2.990;2022-08-11T02:21:16;13;12;
73414;PMS5003;61633;53.742;-2.990;2022-08-11T02:23:42;12;12;
73414;PMS5003;61633;53.742;-2.990;2022-08-11T02:26:14;10;10;
73414;PMS5003;61633;53.742;-2.990;2022-08-11T02:28:34;12;11;
73414;PMS5003;61633;53.742;-2.990;2022-08-11T02:31:01;11;11;
73414;PMS5003;61633;53.742;-2.990;2022-08-11T02:33:23;11;11;
73414;PMS5003;61633;53.742;-2.990;2022-08-11T02:35:54;14;14;
73414;PMS5003;61633;53.742;-2.990;2022-08-11T02:38:16;11;11;
73414;PMS5003;61633;53.742;-2.990;2022-08-11T02:40:42;12;12;
73414;PMS5003;61633;53.742;-2.990;2022-08-11T02:43:08;13;12;
73414;PMS5003;61633;53.742;-2.990;2022-08-11T02:45:33;13;12;
73414;PMS5003;61633;53.742;-2.990;2022-08-11T02:48:00;15;14;
73414;PMS5003;61633;53.742;-2.990;2022-08-11T02:50:22;13;12;
73414;PMS5003;61633;53.742;-2.990;2022-08-11T02:52:50;16;16;
73414;PMS5003;61633;53.742;-2.990;2022-08-11T02:55:17;12;12;
73414;PMS5003;61633;53.742;-2.990;2022-08-11T02:57:39;17;15;
73414;PMS5003;61633;53.742;-2.990;2022-08-11T03:00:05;16;15;
73414;PMS5003;61633;53.742;-2.990;2022-08-11T03:02:32;16;15;
73414;PMS5003;61633;53.742;-2.990;2022-08-11T03:04:59;21;17;
73414;PMS5003;61633;53.742;-2.990;2022-08-11T03:07:20;13;12;
73414;PMS5003;61633;53.742;-2.990;2022-08-11T03:09:47;16;14;
73414;PMS5003;61633;53.742;-2.990;2022-08-11T03:12:12;16;14;
73414;PMS5003;61633;53.742;-2.990;2022-08-11T03:14:40;14;14;
73414;PMS5003;61633;53.742;-2.990;2022-08-11T03:17:04;19;15;
73414;PMS5003;61633;53.742;-2.990;2022-08-11T03:19:29;13;11;
73414;PMS5003;61633;53.742;-2.990;2022-08-11T03:21:58;19;17;
73414;PMS5003;61633;53.742;-2.990;2022-08-11T03:24:20;17;17;
73414;PMS5003;61633;53.742;-2.990;2022-08-11T03:26:46;16;16;
73414;PMS5003;61633;53.742;-2.990;2022-08-11T03:29:10;18;17;
73414;PMS5003;61633;53.742;-2.990;2022-08-11T03:31:35;18;16;
73414;PMS5003;61633;53.742;-2.990;2022-08-11T03:34:01;17;16;
73414;PMS5003;61633;53.742;-2.990;2022-08-11T03:36:33;18;16;
73414;PMS5003;61633;53.742;-2.990;2022-08-11T03:38:56;21;20;
73414;PMS5003;61633;53.742;-2.990;2022-08-11T03:41:18;17;17;
73414;PMS5003;61633;53.742;-2.990;2022-08-11T03:43:54;19;17;
73414;PMS5003;61633;53.742;-2.990;2022-08-11T03:46:09;25;23;
73414;PMS5003;61633;53.742;-2.990;2022-08-11T03:48:37;24;23;
73414;PMS5003;61633;53.742;-2.990;2022-08-11T03:51:03;23;23;
73414;PMS5003;61633;53.742;-2.990;2022-08-11T03:53:30;30;28;
73414;PMS5003;61633;53.742;-2.990;2022-08-11T04:00:49;28;27;
73414;PMS5003;61633;53.742;-2.990;2022-08-11T04:05:37;28;25;
73414;PMS5003;61633;53.742;-2.990;2022-08-11T04:08:02;25;23;
73414;PMS5003;61633;53.742;-2.990;2022-08-11T04:10:29;26;25;
73414;PMS5003;61633;53.742;-2.990;2022-08-11T04:17:48;26;26;
73414;PMS5003;61633;53.742;-2.990;2022-08-11T04:22:35;25;23;
73414;PMS5003;61633;53.742;-2.990;2022-08-11T04:27:32;27;25;
73414;PMS5003;61633;53.742;-2.990;2022-08-11T04:29:55;28;25;
73414;PMS5003;61633;53.742;-2.990;2022-08-11T04:32:20;24;23;
73414;PMS5003;61633;53.742;-2.990;2022-08-11T04:34:41;25;25;
73414;PMS5003;61633;53.742;-2.990;2022-08-11T04:37:09;31;27;
73414;PMS5003;61633;53.742;-2.990;2022-08-11T04:39:36;27;26;
73414;PMS5003;61633;53.742;-2.990;2022-08-11T04:44:26;29;28;
73414;PMS5003;61633;53.742;-2.990;2022-08-11T04:49:17;28;28;
73414;PMS5003;61633;53.742;-2.990;2022-08-11T04:51:43;27;24;
73414;PMS5003;61633;53.742;-2.990;2022-08-11T04:54:03;27;25;
73414;PMS5003;61633;53.742;-2.990;2022-08-11T04:56:28;29;27;
73414;PMS5003;61633;53.742;-2.990;2022-08-11T05:01:23;34;31;
73414;PMS5003;61633;53.742;-2.990;2022-08-11T05:03:52;28;27;
73414;PMS5003;61633;53.742;-2.990;2022-08-11T05:11:08;31;28;
73414;PMS5003;61633;53.742;-2.990;2022-08-11T05:13:28;36;32;
73414;PMS5003;61633;53.742;-2.990;2022-08-11T05:15:53;32;31;
73414;PMS5003;61633;53.742;-2.990;2022-08-11T05:18:19;39;33;
73414;PMS5003;61633;53.742;-2.990;2022-08-11T05:20:46;38;38;
73414;PMS5003;61633;53.742;-2.990;2022-08-11T05:23:09;34;32;
73414;PMS5003;61633;53.742;-2.990;2022-08-11T05:25:35;33;32;
73414;PMS5003;61633;53.742;-2.990;2022-08-11T05:28:02;31;30;
73414;PMS5003;61633;53.742;-2.990;2022-08-11T05:30:26;30;25;
73414;PMS5003;61633;53.742;-2.990;2022-08-11T05:32:55;28;27;
73414;PMS5003;61633;53.742;-2.990;2022-08-11T05:35:17;33;31;
73414;PMS5003;61633;53.742;-2.990;2022-08-11T05:37:43;36;34;
73414;PMS5003;61633;53.742;-2.990;2022-08-11T05:40:09;27;27;
73414;PMS5003;61633;53.742;-2.990;2022-08-11T05:42:34;31;31;
73414;PMS5003;61633;53.742;-2.990;2022-08-11T05:45:00;31;30;
73414;PMS5003;61633;53.742;-2.990;2022-08-11T05:47:25;38;36;
73414;PMS5003;61633;53.742;-2.990;2022-08-11T05:49:50;34;34;
73414;PMS5003;61633;53.742;-2.990;2022-08-11T05:52:16;33;32;
73414;PMS5003;61633;53.742;-2.990;2022-08-11T05:54:42;36;35;
73414;PMS5003;61633;53.742;-2.990;2022-08-11T05:57:07;36;33;
73414;PMS5003;61633;53.742;-2.990;2022-08-11T05:59:32;33;32;
73414;PMS5003;61633;53.742;-2.990;2022-08-11T06:01:59;31;31;
73414;PMS5003;61633;53.742;-2.990;2022-08-11T06:04:23;34;33;
73414;PMS5003;61633;53.742;-2.990;2022-08-11T06:06:50;36;35;
73414;PMS5003;61633;53.742;-2.990;2022-08-11T06:09:15;34;33;
73414;PMS5003;61633;53.742;-2.990;2022-08-11T06:11:41;33;31;
73414;PMS5003;61633;53.742;-2.990;2022-08-11T06:14:07;29;29;
73414;PMS5003;61633;53.742;-2.990;2022-08-11T06:16:32;28;28;
73414;PMS5003;61633;53.742;-2.990;2022-08-11T06:19:03;26;26;
73414;PMS5003;61633;53.742;-2.990;2022-08-11T06:21:23;30;28;
73414;PMS5003;61633;53.742;-2.990;2022-08-11T06:23:49;26;25;
73414;PMS5003;61633;53.742;-2.990;2022-08-11T06:26:15;25;24;
73414;PMS5003;61633;53.742;-2.990;2022-08-11T06:28:41;30;25;
73414;PMS5003;61633;53.742;-2.990;2022-08-11T06:31:10;26;25;
73414;PMS5003;61633;53.742;-2.990;2022-08-11T06:33:33;29;28;
73414;PMS5003;61633;53.742;-2.990;2022-08-11T06:36:02;30;27;
73414;PMS5003;61633;53.742;-2.990;2022-08-11T06:38:27;27;26;
73414;PMS5003;61633;53.742;-2.990;2022-08-11T06:40:50;30;26;
73414;PMS5003;61633;53.742;-2.990;2022-08-11T06:43:15;28;27;
73414;PMS5003;61633;53.742;-2.990;2022-08-11T06:45:40;25;24;
73414;PMS5003;61633;53.742;-2.990;2022-08-11T06:48:05;23;22;
73414;PMS5003;61633;53.742;-2.990;2022-08-11T06:50:30;23;22;
73414;PMS5003;61633;53.742;-2.990;2022-08-11T06:52:56;21;19;
73414;PMS5003;61633;53.742;-2.990;2022-08-11T06:55:22;26;22;
73414;PMS5003;61633;53.742;-2.990;2022-08-11T06:57:46;24;24;
73414;PMS5003;61633;53.742;-2.990;2022-08-11T07:00:12;22;20;
73414;PMS5003;61633;53.742;-2.990;2022-08-11T07:02:42;26;24;
73414;PMS5003;61633;53.742;-2.990;2022-08-11T07:05:06;28;24;
73414;PMS5003;61633;53.742;-2.990;2022-08-11T07:14:47;25;22;
73414;PMS5003;61633;53.742;-2.990;2022-08-11T07:17:13;22;21;
73414;PMS5003;61633;53.742;-2.990;2022-08-11T07:19:36;23;23;
73414;PMS5003;61633;53.742;-2.990;2022-08-11T07:22:02;23;22;
73414;PMS5003;61633;53.742;-2.990;2022-08-11T07:24:28;24;24;
73414;PMS5003;61633;53.742;-2.990;2022-08-11T07:26:53;27;27;
73414;PMS5003;61633;53.742;-2.990;2022-08-11T07:29:19;26;24;
73414;PMS5003;61633;53.742;-2.990;2022-08-11T07:31:45;23;23;
73414;PMS5003;61633;53.742;-2.990;2022-08-11T07:34:12;19;18;
73414;PMS5003;61633;53.742;-2.990;2022-08-11T07:36:36;23;23;
73414;PMS5003;61633;53.742;-2.990;2022-08-11T07:39:00;25;23;
73414;PMS5003;61633;53.742;-2.990;2022-08-11T07:41:26;26;24;
73414;PMS5003;61633;53.742;-2.990;2022-08-11T07:43:52;23;23;
73414;PMS5003;61633;53.742;-2.990;2022-08-11T07:46:17;29;26;
73414;PMS5003;61633;53.742;-2.990;2022-08-11T07:48:43;23;23;
73414;PMS5003;61633;53.742;-2.990;2022-08-11T07:51:08;29;26;
73414;PMS5003;61633;53.742;-2.990;2022-08-11T07:53:34;27;26;
73414;PMS5003;61633;53.742;-2.990;2022-08-11T07:56:00;21;21;
73414;PMS5003;61633;53.742;-2.990;2022-08-11T07:58:27;33;29;
73414;PMS5003;61633;53.742;-2.990;2022-08-11T08:00:52;33;31;
73414;PMS5003;61633;53.742;-2.990;2022-08-11T08:03:15;29;27;
73414;PMS5003;61633;53.742;-2.990;2022-08-11T08:05:41;29;27;
73414;PMS5003;61633;53.742;-2.990;2022-08-11T08:08:06;31;27;
73414;PMS5003;61633;53.742;-2.990;2022-08-11T08:10:32;31;30;
73414;PMS5003;61633;53.742;-2.990;2022-08-11T08:12:57;27;26;
73414;PMS5003;61633;53.742;-2.990;2022-08-11T08:15:22;30;28;
73414;PMS5003;61633;53.742;-2.990;2022-08-11T08:17:48;34;34;
73414;PMS5003;61633;53.742;-2.990;2022-08-11T08:20:13;30;29;
73414;PMS5003;61633;53.742;-2.990;2022-08-11T08:22:39;32;29;
73414;PMS5003;61633;53.742;-2.990;2022-08-11T08:25:04;27;27;
73414;PMS5003;61633;53.742;-2.990;2022-08-11T08:27:29;31;28;
73414;PMS5003;61633;53.742;-2.990;2022-08-11T08:29:54;25;25;
73414;PMS5003;61633;53.742;-2.990;2022-08-11T08:32:20;28;28;
73414;PMS5003;61633;53.742;-2.990;2022-08-11T08:34:45;27;26;
73414;PMS5003;61633;53.742;-2.990;2022-08-11T08:37:10;32;31;
73414;PMS5003;61633;53.742;-2.990;2022-08-11T08:39:35;23;22;
73414;PMS5003;61633;53.742;-2.990;2022-08-11T08:42:01;24;24;
73414;PMS5003;61633;53.742;-2.990;2022-08-11T08:44:26;22;22;
73414;PMS5003;61633;53.742;-2.990;2022-08-11T08:46:53;25;25;
73414;PMS5003;61633;53.742;-2.990;2022-08-11T08:49:18;22;20;
73414;PMS5003;61633;53.742;-2.990;2022-08-11T08:51:42;24;24;
73414;PMS5003;61633;53.742;-2.990;2022-08-11T08:54:10;25;24;
73414;PMS5003;61633;53.742;-2.990;2022-08-11T08:56:33;28;28;
73414;PMS5003;61633;53.742;-2.990;2022-08-11T08:59:00;27;26;
73414;PMS5003;61633;53.742;-2.990;2022-08-11T09:01:24;19;19;
73414;PMS5003;61633;53.742;-2.990;2022-08-11T09:03:49;24;22;
73414;PMS5003;61633;53.742;-2.990;2022-08-11T09:06:14;23;23;
73414;PMS5003;61633;53.742;-2.990;2022-08-11T09:08:40;25;24;
73414;PMS5003;61633;53.742;-2.990;2022-08-11T09:11:05;24;23;
73414;PMS5003;61633;53.742;-2.990;2022-08-11T09:13:32;25;23;
73414;PMS5003;61633;53.742;-2.990;2022-08-11T09:15:56;21;21;
73414;PMS5003;61633;53.742;-2.990;2022-08-11T09:18:22;25;23;
73414;PMS5003;61633;53.742;-2.990;2022-08-11T09:20:47;25;22;
73414;PMS5003;61633;53.742;-2.990;2022-08-11T09:23:14;23;23;
73414;PMS5003;61633;53.742;-2.990;2022-08-11T09:25:38;21;20;
73414;PMS5003;61633;53.742;-2.990;2022-08-11T09:28:03;20;20;
73414;PMS5003;61633;53.742;-2.990;2022-08-11T09:30:28;23;23;
73414;PMS5003;61633;53.742;-2.990;2022-08-11T09:32:54;25;24;
73414;PMS5003;61633;53.742;-2.990;2022-08-11T09:35:19;21;21;
73414;PMS5003;61633;53.742;-2.990;2022-08-11T09:37:44;22;22;
73414;PMS5003;61633;53.742;-2.990;2022-08-11T09:40:10;20;19;
73414;PMS5003;61633;53.742;-2.990;2022-08-11T09:42:35;19;18;
73414;PMS5003;61633;53.742;-2.990;2022-08-11T09:45:01;18;17;
73414;PMS5003;61633;53.742;-2.990;2022-08-11T09:47:27;19;19;
73414;PMS5003;61633;53.742;-2.990;2022-08-11T09:49:53;20;19;
73414;PMS5003;61633;53.742;-2.990;2022-08-11T09:52:17;16;16;
73414;PMS5003;61633;53.742;-2.990;2022-08-11T09:54:42;20;19;
73414;PMS5003;61633;53.742;-2.990;2022-08-11T09:57:08;21;21;
73414;PMS5003;61633;53.742;-2.990;2022-08-11T09:59:33;22;22;
73414;PMS5003;61633;53.742;-2.990;2022-08-11T10:02:00;22;20;
73414;PMS5003;61633;53.742;-2.990;2022-08-11T10:04:25;21;18;
73414;PMS5003;61633;53.742;-2.990;2022-08-11T10:06:51;20;18;
73414;PMS5003;61633;53.742;-2.990;2022-08-11T10:09:16;20;19;
73414;PMS5003;61633;53.742;-2.990;2022-08-11T10:11:39;21;20;
73414;PMS5003;61633;53.742;-2.990;2022-08-11T10:14:05;19;19;
73414;PMS5003;61633;53.742;-2.990;2022-08-11T10:16:31;20;19;
73414;PMS5003;61633;53.742;-2.990;2022-08-11T10:18:56;18;17;
73414;PMS5003;61633;53.742;-2.990;2022-08-11T10:21:24;22;21;
73414;PMS5003;61633;53.742;-2.990;2022-08-11T10:23:46;18;17;
73414;PMS5003;61633;53.742;-2.990;2022-08-11T10:26:11;20;18;
73414;PMS5003;61633;53.742;-2.990;2022-08-11T10:28:37;15;15;
73414;PMS5003;61633;53.742;-2.990;2022-08-11T10:31:02;16;16;
73414;PMS5003;61633;53.742;-2.990;2022-08-11T10:33:27;21;19;
73414;PMS5003;61633;53.742;-2.990;2022-08-11T10:35:53;22;21;
73414;PMS5003;61633;53.742;-2.990;2022-08-11T10:38:19;19;19;
73414;PMS5003;61633;53.742;-2.990;2022-08-11T10:40:45;19;19;
73414;PMS5003;61633;53.742;-2.990;2022-08-11T10:43:10;16;16;
73414;PMS5003;61633;53.742;-2.990;2022-08-11T10:45:36;21;20;
73414;PMS5003;61633;53.742;-2.990;2022-08-11T10:48:02;17;17;
73414;PMS5003;61633;53.742;-2.990;2022-08-11T10:50:27;16;16;
73414;PMS5003;61633;53.742;-2.990;2022-08-11T10:52:52;18;18;
73414;PMS5003;61633;53.742;-2.990;2022-08-11T10:55:17;18;16;
73414;PMS5003;61633;53.742;-2.990;2022-08-11T10:57:42;15;15;
73414;PMS5003;61633;53.742;-2.990;2022-08-11T11:00:08;22;19;
73414;PMS5003;61633;53.742;-2.990;2022-08-11T11:02:33;19;18;
73414;PMS5003;61633;53.742;-2.990;2022-08-11T11:05:01;19;18;
73414;PMS5003;61633;53.742;-2.990;2022-08-11T11:07:26;15;14;
73414;PMS5003;61633;53.742;-2.990;2022-08-11T11:09:49;18;17;
73414;PMS5003;61633;53.742;-2.990;2022-08-11T11:12:15;14;13;
73414;PMS5003;61633;53.742;-2.990;2022-08-11T11:14:40;18;17;
73414;PMS5003;61633;53.742;-2.990;2022-08-11T11:17:05;20;18;
73414;PMS5003;61633;53.742;-2.990;2022-08-11T11:19:30;16;16;
73414;PMS5003;61633;53.742;-2.990;2022-08-11T11:21:55;20;19;
73414;PMS5003;61633;53.742;-2.990;2022-08-11T11:24:24;22;19;
73414;PMS5003;61633;53.742;-2.990;2022-08-11T11:26:47;19;19;
73414;PMS5003;61633;53.742;-2.990;2022-08-11T11:31:42;15;15;
73414;PMS5003;61633;53.742;-2.990;2022-08-11T11:36:27;19;19;
73414;PMS5003;61633;53.742;-2.990;2022-08-11T11:38:52;17;17;
73414;PMS5003;61633;53.742;-2.990;2022-08-11T11:41:16;18;16;
73414;PMS5003;61633;53.742;-2.990;2022-08-11T11:43:42;14;14;
73414;PMS5003;61633;53.742;-2.990;2022-08-11T11:46:08;17;15;
73414;PMS5003;61633;53.742;-2.990;2022-08-11T11:48:33;16;16;
73414;PMS5003;61633;53.742;-2.990;2022-08-11T11:50:58;17;17;
73414;PMS5003;61633;53.742;-2.990;2022-08-11T11:53:23;19;19;
73414;PMS5003;61633;53.742;-2.990;2022-08-11T11:55:48;18;18;
73414;PMS5003;61633;53.742;-2.990;2022-08-11T11:58:14;20;16;
73414;PMS5003;61633;53.742;-2.990;2022-08-11T12:00:39;16;16;
73414;PMS5003;61633;53.742;-2.990;2022-08-11T12:03:06;18;16;
73414;PMS5003;61633;53.742;-2.990;2022-08-11T12:05:30;14;14;
73414;PMS5003;61633;53.742;-2.990;2022-08-11T12:07:55;18;16;
73414;PMS5003;61633;53.742;-2.990;2022-08-11T12:10:20;19;18;
73414;PMS5003;61633;53.742;-2.990;2022-08-11T12:12:46;18;18;
73414;PMS5003;61633;53.742;-2.990;2022-08-11T12:15:11;21;21;
73414;PMS5003;61633;53.742;-2.990;2022-08-11T12:17:37;20;20;
73414;PMS5003;61633;53.742;-2.990;2022-08-11T12:20:03;21;19;
73414;PMS5003;61633;53.742;-2.990;2022-08-11T12:22:28;19;18;
73414;PMS5003;61633;53.742;-2.990;2022-08-11T12:24:53;17;17;
73414;PMS5003;61633;53.742;-2.990;2022-08-11T12:27:18;20;18;
73414;PMS5003;61633;53.742;-2.990;2022-08-11T12:29:44;27;24;
73414;PMS5003;61633;53.742;-2.990;2022-08-11T12:32:09;21;20;
73414;PMS5003;61633;53.742;-2.990;2022-08-11T12:34:39;19;17;
73414;PMS5003;61633;53.742;-2.990;2022-08-11T12:37:00;18;18;
73414;PMS5003;61633;53.742;-2.990;2022-08-11T12:39:27;18;17;
73414;PMS5003;61633;53.742;-2.990;2022-08-11T12:41:51;20;20;
73414;PMS5003;61633;53.742;-2.990;2022-08-11T12:44:17;15;15;
73414;PMS5003;61633;53.742;-2.990;2022-08-11T12:46:42;20;18;
73414;PMS5003;61633;53.742;-2.990;2022-08-11T12:49:09;18;18;
73414;PMS5003;61633;53.742;-2.990;2022-08-11T12:51:34;20;19;
73414;PMS5003;61633;53.742;-2.990;2022-08-11T12:53:59;17;16;
73414;PMS5003;61633;53.742;-2.990;2022-08-11T12:56:24;18;18;
73414;PMS5003;61633;53.742;-2.990;2022-08-11T12:58:50;18;17;
73414;PMS5003;61633;53.742;-2.990;2022-08-11T13:01:15;17;17;
73414;PMS5003;61633;53.742;-2.990;2022-08-11T13:03:39;17;17;
73414;PMS5003;61633;53.742;-2.990;2022-08-11T13:06:05;19;16;
73414;PMS5003;61633;53.742;-2.990;2022-08-11T13:08:31;18;17;
73414;PMS5003;61633;53.742;-2.990;2022-08-11T13:10:56;20;17;
73414;PMS5003;61633;53.742;-2.990;2022-08-11T13:13:20;14;13;
73414;PMS5003;61633;53.742;-2.990;2022-08-11T13:15:46;16;16;
73414;PMS5003;61633;53.742;-2.990;2022-08-11T13:18:13;14;14;
73414;PMS5003;61633;53.742;-2.990;2022-08-11T13:20:37;14;14;
73414;PMS5003;61633;53.742;-2.990;2022-08-11T13:23:02;19;19;
73414;PMS5003;61633;53.742;-2.990;2022-08-11T13:25:29;17;17;
73414;PMS5003;61633;53.742;-2.990;2022-08-11T13:27:54;19;18;
73414;PMS5003;61633;53.742;-2.990;2022-08-11T13:30:18;19;19;
73414;PMS5003;61633;53.742;-2.990;2022-08-11T13:32:44;16;16;
73414;PMS5003;61633;53.742;-2.990;2022-08-11T13:35:09;18;18;
73414;PMS5003;61633;53.742;-2.990;2022-08-11T13:37:35;18;18;
73414;PMS5003;61633;53.742;-2.990;2022-08-11T13:40:00;22;22;
73414;PMS5003;61633;53.742;-2.990;2022-08-11T13:42:25;17;17;
73414;PMS5003;61633;53.742;-2.990;2022-08-11T13:44:50;18;17;
73414;PMS5003;61633;53.742;-2.990;2022-08-11T13:47:16;17;15;
73414;PMS5003;61633;53.742;-2.990;2022-08-11T13:49:41;20;19;
73414;PMS5003;61633;53.742;-2.990;2022-08-11T13:52:09;17;17;
73414;PMS5003;61633;53.742;-2.990;2022-08-11T13:54:33;18;18;
73414;PMS5003;61633;53.742;-2.990;2022-08-11T13:56:59;16;16;
73414;PMS5003;61633;53.742;-2.990;2022-08-11T13:59:22;15;14;
73414;PMS5003;61633;53.742;-2.990;2022-08-11T14:01:49;18;15;
73414;PMS5003;61633;53.742;-2.990;2022-08-11T14:04:16;14;13;
73414;PMS5003;61633;53.742;-2.990;2022-08-11T14:06:40;17;17;
73414;PMS5003;61633;53.742;-2.990;2022-08-11T14:09:06;19;19;
73414;PMS5003;61633;53.742;-2.990;2022-08-11T14:11:30;12;12;
73414;PMS5003;61633;53.742;-2.990;2022-08-11T14:13:55;16;14;
73414;PMS5003;61633;53.742;-2.990;2022-08-11T14:16:22;16;15;
73414;PMS5003;61633;53.742;-2.990;2022-08-11T14:18:46;15;15;
73414;PMS5003;61633;53.742;-2.990;2022-08-11T14:21:12;17;16;
73414;PMS5003;61633;53.742;-2.990;2022-08-11T14:23:38;13;13;
73414;PMS5003;61633;53.742;-2.990;2022-08-11T14:26:01;13;13;
73414;PMS5003;61633;53.742;-2.990;2022-08-11T14:28:27;15;15;
73414;PMS5003;61633;53.742;-2.990;2022-08-11T14:30:52;15;13;
73414;PMS5003;61633;53.742;-2.990;2022-08-11T14:33:18;12;12;
73414;PMS5003;61633;53.742;-2.990;2022-08-11T14:35:44;13;13;
73414;PMS5003;61633;53.742;-2.990;2022-08-11T14:38:09;16;15;
73414;PMS5003;61633;53.742;-2.990;2022-08-11T14:40:34;16;14;
73414;PMS5003;61633;53.742;-2.990;2022-08-11T14:43:00;12;12;
73414;PMS5003;61633;53.742;-2.990;2022-08-11T14:45:25;14;14;
73414;PMS5003;61633;53.742;-2.990;2022-08-11T14:47:51;12;12;
73414;PMS5003;61633;53.742;-2.990;2022-08-11T14:50:17;12;12;
73414;PMS5003;61633;53.742;-2.990;2022-08-11T14:52:43;13;13;
73414;PMS5003;61633;53.742;-2.990;2022-08-11T14:55:07;13;13;
73414;PMS5003;61633;53.742;-2.990;2022-08-11T14:57:34;16;13;
73414;PMS5003;61633;53.742;-2.990;2022-08-11T14:59:59;13;10;
73414;PMS5003;61633;53.742;-2.990;2022-08-11T15:02:23;12;12;
73414;PMS5003;61633;53.742;-2.990;2022-08-11T15:04:48;13;13;
73414;PMS5003;61633;53.742;-2.990;2022-08-11T15:07:14;12;11;
73414;PMS5003;61633;53.742;-2.990;2022-08-11T15:09:39;12;11;
73414;PMS5003;61633;53.742;-2.990;2022-08-11T15:12:11;10;10;
73414;PMS5003;61633;53.742;-2.990;2022-08-11T15:14:30;11;10;
73414;PMS5003;61633;53.742;-2.990;2022-08-11T15:16:55;12;11;
73414;PMS5003;61633;53.742;-2.990;2022-08-11T15:19:21;9;9;
73414;PMS5003;61633;53.742;-2.990;2022-08-11T15:21:46;11;11;
73414;PMS5003;61633;53.742;-2.990;2022-08-11T15:24:11;10;8;
73414;PMS5003;61633;53.742;-2.990;2022-08-11T15:26:37;9;7;
73414;PMS5003;61633;53.742;-2.990;2022-08-11T15:29:02;8;8;
73414;PMS5003;61633;53.742;-2.990;2022-08-11T15:31:28;6;6;
73414;PMS5003;61633;53.742;-2.990;2022-08-11T15:33:54;8;7;
73414;PMS5003;61633;53.742;-2.990;2022-08-11T15:36:18;11;10;
73414;PMS5003;61633;53.742;-2.990;2022-08-11T15:38:46;11;11;
73414;PMS5003;61633;53.742;-2.990;2022-08-11T15:41:09;11;10;
73414;PMS5003;61633;53.742;-2.990;2022-08-11T15:43:36;9;8;
73414;PMS5003;61633;53.742;-2.990;2022-08-11T15:46:01;9;9;
73414;PMS5003;61633;53.742;-2.990;2022-08-11T15:48:27;9;9;
73414;PMS5003;61633;53.742;-2.990;2022-08-11T15:50:51;12;9;
73414;PMS5003;61633;53.742;-2.990;2022-08-11T15:53:17;11;8;
73414;PMS5003;61633;53.742;-2.990;2022-08-11T15:55:40;8;8;
73414;PMS5003;61633;53.742;-2.990;2022-08-11T15:58:07;9;9;
73414;PMS5003;61633;53.742;-2.990;2022-08-11T16:00:31;11;8;
73414;PMS5003;61633;53.742;-2.990;2022-08-11T16:02:57;10;9;
73414;PMS5003;61633;53.742;-2.990;2022-08-11T16:05:22;10;10;
73414;PMS5003;61633;53.742;-2.990;2022-08-11T16:07:47;6;6;
73414;PMS5003;61633;53.742;-2.990;2022-08-11T16:10:13;7;7;
73414;PMS5003;61633;53.742;-2.990;2022-08-11T16:12:39;9;9;
73414;PMS5003;61633;53.742;-2.990;2022-08-11T16:15:04;8;8;
73414;PMS5003;61633;53.742;-2.990;2022-08-11T16:17:29;8;7;
73414;PMS5003;61633;53.742;-2.990;2022-08-11T16:19:55;7;7;
73414;PMS5003;61633;53.742;-2.990;2022-08-11T16:22:21;7;7;
73414;PMS5003;61633;53.742;-2.990;2022-08-11T16:24:45;7;7;
73414;PMS5003;61633;53.742;-2.990;2022-08-11T16:27:10;9;9;
73414;PMS5003;61633;53.742;-2.990;2022-08-11T16:29:35;11;10;
73414;PMS5003;61633;53.742;-2.990;2022-08-11T16:32:01;10;10;
73414;PMS5003;61633;53.742;-2.990;2022-08-11T16:34:26;9;9;
73414;PMS5003;61633;53.742;-2.990;2022-08-11T16:36:52;9;9;
73414;PMS5003;61633;53.742;-2.990;2022-08-11T16:39:17;9;9;
73414;PMS5003;61633;53.742;-2.990;2022-08-11T16:41:42;9;9;
73414;PMS5003;61633;53.742;-2.990;2022-08-11T16:44:08;8;8;
73414;PMS5003;61633;53.742;-2.990;2022-08-11T16:46:33;7;7;
73414;PMS5003;61633;53.742;-2.990;2022-08-11T16:49:01;8;8;
73414;PMS5003;61633;53.742;-2.990;2022-08-11T16:51:29;7;7;
73414;PMS5003;61633;53.742;-2.990;2022-08-11T16:53:49;11;11;
73414;PMS5003;61633;53.742;-2.990;2022-08-11T16:56:15;9;7;
73414;PMS5003;61633;53.742;-2.990;2022-08-11T16:58:39;6;6;
73414;PMS5003;61633;53.742;-2.990;2022-08-11T17:01:05;8;8;
73414;PMS5003;61633;53.742;-2.990;2022-08-11T17:03:30;10;10;
73414;PMS5003;61633;53.742;-2.990;2022-08-11T17:05:56;8;8;
73414;PMS5003;61633;53.742;-2.990;2022-08-11T17:08:22;7;7;
73414;PMS5003;61633;53.742;-2.990;2022-08-11T17:10:47;8;8;